createdAt,value
2018-08-31T00:01:59.394Z,34.50
2018-08-31T00:04:40.259Z,31.00
2018-08-31T00:07:25.384Z,22.27
2018-08-31T00:10:20.438Z,22.30
2018-08-31T00:12:49.026Z,27.13
2018-08-31T00:15:17.611Z,21.75
2018-08-31T00:17:46.169Z,23.57
2018-08-31T00:20:15.312Z,21.35
2018-08-31T00:22:43.900Z,28.50
2018-08-31T00:26:24.302Z,18.65
2018-08-31T00:29:41.743Z,21.75
2018-08-31T00:32:21.964Z,19.85
2018-08-31T00:35:01.761Z,18.90
2018-08-31T00:37:41.647Z,23.62
2018-08-31T00:41:23.841Z,24.75
2018-08-31T00:44:05.795Z,29.07
2018-08-31T00:46:34.403Z,18.57
2018-08-31T00:49:03.060Z,30.05
2018-08-31T00:51:31.620Z,27.58
2018-08-31T00:54:00.282Z,21.33
2018-08-31T00:56:28.833Z,24.20
2018-08-31T00:58:57.404Z,20.70
2018-08-31T01:01:26.833Z,20.30
2018-08-31T01:03:55.412Z,20.70
2018-08-31T01:06:23.956Z,21.82
2018-08-31T01:08:52.501Z,18.25
2018-08-31T01:11:21.057Z,19.05
2018-08-31T01:13:49.608Z,23.05
2018-08-31T01:16:18.208Z,18.77
2018-08-31T01:18:46.752Z,23.77
2018-08-31T01:21:15.337Z,19.07
2018-08-31T01:23:44.019Z,21.27
2018-08-31T01:26:12.556Z,21.07
2018-08-31T01:28:41.166Z,18.98
2018-08-31T01:31:09.705Z,20.68
2018-08-31T01:33:38.410Z,16.85
2018-08-31T01:36:06.995Z,23.05
2018-08-31T01:38:35.587Z,22.32
2018-08-31T01:41:04.195Z,18.67
2018-08-31T01:43:32.733Z,15.95
2018-08-31T01:46:01.280Z,20.60
2018-08-31T01:48:29.821Z,18.17
2018-08-31T01:51:03.613Z,18.57
2018-08-31T01:53:32.224Z,16.02
2018-08-31T01:56:00.846Z,15.13
2018-08-31T01:58:29.435Z,21.70
2018-08-31T02:00:58.028Z,21.35
2018-08-31T02:03:26.594Z,17.77
2018-08-31T02:05:55.204Z,21.60
2018-08-31T02:08:23.762Z,17.70
2018-08-31T02:10:52.299Z,15.68
2018-08-31T02:13:20.906Z,18.82
2018-08-31T02:15:49.454Z,21.95
2018-08-31T02:18:18.038Z,14.70
2018-08-31T02:20:46.595Z,25.05
2018-08-31T02:23:15.151Z,20.12
2018-08-31T02:25:43.688Z,22.35
2018-08-31T02:28:12.246Z,17.70
2018-08-31T02:30:40.809Z,23.70
2018-08-31T02:33:09.365Z,18.70
2018-08-31T02:35:37.908Z,19.98
2018-08-31T02:38:06.891Z,15.80
2018-08-31T02:40:35.439Z,15.80
2018-08-31T02:43:04.032Z,18.00
2018-08-31T02:45:33.207Z,15.68
2018-08-31T02:48:01.757Z,20.35
2018-08-31T02:50:30.325Z,17.42
2018-08-31T02:52:58.865Z,19.17
2018-08-31T02:55:27.446Z,22.27
2018-08-31T02:57:55.995Z,20.20
2018-08-31T03:00:24.611Z,21.33
2018-08-31T03:02:53.253Z,16.42
2018-08-31T03:05:21.824Z,21.37
2018-08-31T03:07:50.494Z,17.90
2018-08-31T03:10:19.133Z,18.87
2018-08-31T03:12:47.707Z,11.10
2018-08-31T03:15:16.260Z,12.58
2018-08-31T03:17:44.916Z,19.32
2018-08-31T03:20:13.510Z,19.50
2018-08-31T03:22:42.077Z,22.02
2018-08-31T03:25:10.782Z,23.15
2018-08-31T03:27:39.353Z,12.80
2018-08-31T03:30:08.025Z,15.10
2018-08-31T03:32:36.578Z,16.05
2018-08-31T03:35:05.324Z,13.72
2018-08-31T03:37:33.863Z,14.07
2018-08-31T03:40:02.397Z,14.73
2018-08-31T03:42:30.932Z,17.95
2018-08-31T03:44:59.478Z,15.53
2018-08-31T03:47:28.380Z,13.38
2018-08-31T03:49:56.960Z,11.40
2018-08-31T03:52:25.533Z,20.95
2018-08-31T03:54:54.133Z,12.13
2018-08-31T03:57:22.711Z,19.20
2018-08-31T03:59:51.302Z,15.35
2018-08-31T04:02:19.894Z,11.73
2018-08-31T04:04:48.498Z,22.13
2018-08-31T04:07:17.051Z,29.48
2018-08-31T04:09:45.593Z,38.55
2018-08-31T04:12:14.147Z,17.65
2018-08-31T04:14:42.700Z,16.90
2018-08-31T04:17:11.272Z,51.90
2018-08-31T04:19:39.831Z,27.70
2018-08-31T04:22:08.466Z,20.62
2018-08-31T04:24:37.005Z,13.22
2018-08-31T04:27:05.575Z,18.27
2018-08-31T04:29:34.151Z,14.43
2018-08-31T04:32:02.736Z,16.00
2018-08-31T04:34:31.324Z,15.38
2018-08-31T04:36:59.933Z,20.95
2018-08-31T04:39:28.504Z,17.90
2018-08-31T04:41:57.061Z,16.07
2018-08-31T04:44:25.623Z,11.63
2018-08-31T04:46:54.207Z,13.60
2018-08-31T04:49:22.735Z,16.95
2018-08-31T04:51:51.296Z,17.80
2018-08-31T04:54:19.993Z,22.85
2018-08-31T04:56:48.585Z,19.48
2018-08-31T04:59:17.145Z,14.70
2018-08-31T05:01:45.669Z,16.40
2018-08-31T05:04:14.358Z,16.50
2018-08-31T05:06:42.908Z,18.98
2018-08-31T05:09:12.472Z,19.48
2018-08-31T05:11:41.173Z,12.28
2018-08-31T05:14:09.798Z,18.07
2018-08-31T05:16:38.357Z,14.33
2018-08-31T05:19:06.959Z,15.83
2018-08-31T05:21:35.504Z,18.87
2018-08-31T05:24:04.116Z,15.05
2018-08-31T05:26:32.630Z,16.30
2018-08-31T05:29:01.233Z,14.35
2018-08-31T05:31:29.832Z,17.92
2018-08-31T05:33:58.440Z,20.50
2018-08-31T05:36:27.004Z,17.07
2018-08-31T05:38:55.552Z,24.85
2018-08-31T05:41:24.088Z,28.30
2018-08-31T05:43:52.639Z,17.00
2018-08-31T05:46:21.267Z,16.90
2018-08-31T05:48:49.885Z,17.10
2018-08-31T05:51:18.692Z,22.90
2018-08-31T05:53:47.220Z,16.05
2018-08-31T05:56:15.778Z,12.28
2018-08-31T05:58:44.287Z,20.32
2018-08-31T06:01:12.864Z,13.30
2018-08-31T06:03:41.405Z,14.87
2018-08-31T06:06:09.954Z,17.52
2018-08-31T06:08:38.525Z,15.30
2018-08-31T06:11:07.174Z,14.05
2018-08-31T06:13:35.753Z,24.10
2018-08-31T06:16:04.310Z,26.68
2018-08-31T06:18:32.896Z,19.15
2018-08-31T06:21:01.526Z,18.27
2018-08-31T06:23:30.125Z,9.93
2018-08-31T06:25:58.676Z,15.30
2018-08-31T06:28:27.255Z,18.12
2018-08-31T06:30:55.903Z,23.30
2018-08-31T06:33:25.263Z,15.03
2018-08-31T06:35:53.827Z,13.72
2018-08-31T06:38:22.374Z,18.70
2018-08-31T06:40:51.096Z,12.63
2018-08-31T06:43:19.589Z,10.00
2018-08-31T06:45:48.157Z,16.12
2018-08-31T06:48:16.712Z,10.30
2018-08-31T06:50:45.261Z,12.55
2018-08-31T06:53:13.858Z,11.95
2018-08-31T06:55:42.407Z,10.03
2018-08-31T06:58:10.947Z,15.53
2018-08-31T07:00:39.543Z,11.40
2018-08-31T07:03:08.082Z,11.03
2018-08-31T07:05:36.672Z,9.10
2018-08-31T07:08:05.533Z,24.57
2018-08-31T07:10:34.080Z,10.48
2018-08-31T07:13:02.638Z,15.65
2018-08-31T07:15:31.226Z,10.50
2018-08-31T07:17:59.770Z,11.08
2018-08-31T07:20:28.326Z,9.08
2018-08-31T07:22:56.892Z,7.15
2018-08-31T07:25:25.500Z,8.28
2018-08-31T07:27:54.047Z,8.08
2018-08-31T07:30:22.587Z,21.40
2018-08-31T07:32:51.121Z,13.43
2018-08-31T07:35:19.651Z,8.48
2018-08-31T07:37:48.183Z,11.88
2018-08-31T07:40:16.710Z,11.05
2018-08-31T07:42:45.359Z,9.70
2018-08-31T07:45:13.938Z,5.85
2018-08-31T07:47:42.496Z,12.90
2018-08-31T07:50:11.052Z,8.60
2018-08-31T07:52:39.659Z,11.55
2018-08-31T07:55:08.217Z,7.85
2018-08-31T07:57:36.772Z,6.78
2018-08-31T08:00:05.425Z,13.48
2018-08-31T08:02:34.005Z,9.40
2018-08-31T08:05:02.556Z,9.60
2018-08-31T08:07:31.241Z,8.95
2018-08-31T08:09:59.782Z,13.62
2018-08-31T08:12:28.344Z,8.50
2018-08-31T08:14:56.889Z,8.93
2018-08-31T08:17:25.501Z,6.65
2018-08-31T08:19:54.136Z,12.78
2018-08-31T08:22:22.689Z,8.58
2018-08-31T08:24:51.355Z,12.20
2018-08-31T08:27:19.923Z,7.78
2018-08-31T08:29:48.509Z,6.40
2018-08-31T08:32:17.079Z,16.60
2018-08-31T08:34:45.745Z,12.30
2018-08-31T08:37:14.289Z,9.10
2018-08-31T08:39:42.873Z,12.65
2018-08-31T08:42:11.613Z,11.60
2018-08-31T08:44:40.174Z,7.12
2018-08-31T08:47:08.843Z,12.45
2018-08-31T08:49:37.395Z,8.50
2018-08-31T08:52:06.101Z,7.28
2018-08-31T08:54:34.687Z,11.48
2018-08-31T08:57:03.236Z,9.90
2018-08-31T08:59:31.834Z,8.13
2018-08-31T09:02:00.430Z,8.75
2018-08-31T09:04:29.035Z,10.72
2018-08-31T09:06:57.634Z,7.17
2018-08-31T09:09:26.156Z,7.62
2018-08-31T09:11:54.751Z,4.58
2018-08-31T09:14:23.286Z,6.42
2018-08-31T09:16:51.848Z,5.97
2018-08-31T09:19:20.383Z,4.90
2018-08-31T09:21:48.907Z,8.90
2018-08-31T09:24:17.457Z,7.62
2018-08-31T09:26:46.001Z,7.90
2018-08-31T09:29:14.577Z,9.58
2018-08-31T09:31:43.243Z,11.22
2018-08-31T09:34:11.830Z,17.73
2018-08-31T09:36:40.407Z,12.63
2018-08-31T09:39:09.353Z,5.00
2018-08-31T09:41:37.957Z,5.10
2018-08-31T09:44:06.491Z,2.00
2018-08-31T09:46:35.059Z,7.50
2018-08-31T09:49:03.608Z,4.35
2018-08-31T09:51:32.196Z,10.45
2018-08-31T09:54:00.789Z,7.00
2018-08-31T09:56:29.431Z,4.47
2018-08-31T09:58:58.082Z,4.00
2018-08-31T10:01:31.932Z,3.92
2018-08-31T10:04:02.173Z,5.00
2018-08-31T10:06:35.362Z,6.05
2018-08-31T10:09:06.444Z,14.23
2018-08-31T10:14:21.990Z,2.50
2018-08-31T10:16:56.312Z,5.17
2018-08-31T10:19:27.817Z,4.70
2018-08-31T10:21:57.394Z,5.80
2018-08-31T10:24:26.404Z,8.23
2018-08-31T10:27:01.617Z,4.53
2018-08-31T10:29:30.838Z,3.60
2018-08-31T10:31:59.873Z,9.90
2018-08-31T10:34:28.987Z,3.60
2018-08-31T10:36:58.097Z,6.93
2018-08-31T10:39:27.688Z,6.77
2018-08-31T10:41:58.374Z,7.10
2018-08-31T10:44:27.360Z,9.60
2018-08-31T10:46:56.116Z,2.90
2018-08-31T10:49:24.837Z,8.27
2018-08-31T10:51:53.671Z,8.17
2018-08-31T10:54:22.465Z,4.37
2018-08-31T10:56:51.125Z,5.00
2018-08-31T10:59:19.869Z,3.83
2018-08-31T11:01:48.581Z,7.43
2018-08-31T11:04:17.279Z,6.60
2018-08-31T11:06:45.889Z,6.07
2018-08-31T11:09:14.641Z,5.77
2018-08-31T11:11:43.949Z,3.50
2018-08-31T11:14:12.667Z,12.27
2018-08-31T11:16:41.370Z,7.77
2018-08-31T11:19:10.332Z,3.27
2018-08-31T11:21:41.412Z,4.33
2018-08-31T11:24:10.276Z,7.93
2018-08-31T11:26:38.940Z,2.83
2018-08-31T11:29:07.719Z,3.63
2018-08-31T11:31:36.327Z,2.07
2018-08-31T11:34:04.954Z,5.13
2018-08-31T11:36:33.521Z,6.70
2018-08-31T11:39:02.186Z,3.70
2018-08-31T11:41:30.735Z,6.70
2018-08-31T11:43:59.287Z,4.00
2018-08-31T11:46:27.867Z,3.30
2018-08-31T11:48:56.443Z,4.63
2018-08-31T11:51:24.999Z,5.83
2018-08-31T11:53:53.656Z,5.63
2018-08-31T11:56:22.188Z,2.60
2018-08-31T11:58:50.764Z,5.63
2018-08-31T12:01:19.871Z,2.80
2018-08-31T12:03:48.655Z,11.33
2018-08-31T12:06:17.934Z,19.77
2018-08-31T12:08:48.626Z,10.03
2018-08-31T12:11:23.041Z,5.43
2018-08-31T12:14:11.149Z,6.03
2018-08-31T12:16:39.990Z,7.53
2018-08-31T12:19:08.633Z,7.40
2018-08-31T12:21:37.177Z,4.73
2018-08-31T12:24:05.875Z,3.90
2018-08-31T12:26:34.467Z,9.67
2018-08-31T12:29:03.100Z,7.37
2018-08-31T12:31:31.655Z,7.60
2018-08-31T12:34:00.224Z,3.60
2018-08-31T12:36:28.790Z,8.97
2018-08-31T12:38:57.371Z,6.97
2018-08-31T12:41:25.903Z,4.47
2018-08-31T12:43:54.594Z,8.10
2018-08-31T12:46:23.125Z,4.20
2018-08-31T12:48:51.653Z,6.87
2018-08-31T12:51:20.197Z,6.27
2018-08-31T12:53:48.744Z,6.87
2018-08-31T12:56:17.331Z,4.63
2018-08-31T12:58:45.935Z,4.03
2018-08-31T13:01:14.508Z,8.00
2018-08-31T13:03:43.050Z,5.47
2018-08-31T13:06:11.659Z,4.40
2018-08-31T13:08:40.260Z,9.40
2018-08-31T13:11:08.856Z,4.73
2018-08-31T13:13:37.379Z,3.33
2018-08-31T13:16:06.132Z,15.10
2018-08-31T13:18:34.664Z,7.70
2018-08-31T13:21:03.219Z,6.20
2018-08-31T13:23:31.833Z,4.13
2018-08-31T13:26:00.428Z,6.50
2018-08-31T13:28:29.047Z,6.80
2018-08-31T13:30:57.644Z,6.70
2018-08-31T13:33:26.164Z,7.07
2018-08-31T13:35:54.726Z,4.83
2018-08-31T13:38:23.349Z,4.87
2018-08-31T13:40:51.917Z,4.47
2018-08-31T13:43:20.493Z,10.90
2018-08-31T13:45:49.043Z,5.73
2018-08-31T13:48:17.597Z,9.07
2018-08-31T13:50:46.158Z,13.73
2018-08-31T13:53:14.830Z,10.57
2018-08-31T13:55:43.470Z,6.27
2018-08-31T13:58:12.034Z,5.93
2018-08-31T14:00:40.659Z,5.70
2018-08-31T14:03:09.212Z,5.67
2018-08-31T14:05:37.770Z,5.87
2018-08-31T14:08:06.514Z,8.53
2018-08-31T14:10:35.084Z,6.53
2018-08-31T14:13:03.693Z,7.43
2018-08-31T14:15:32.260Z,8.10
2018-08-31T14:18:00.872Z,13.43
2018-08-31T14:20:29.513Z,6.40
2018-08-31T14:22:58.085Z,2.50
2018-08-31T14:25:26.700Z,10.77
2018-08-31T14:27:55.273Z,9.13
2018-08-31T14:30:23.825Z,15.27
2018-08-31T14:32:52.368Z,7.33
2018-08-31T14:35:20.923Z,7.40
2018-08-31T14:37:49.521Z,9.07
2018-08-31T14:40:18.137Z,4.93
2018-08-31T14:42:47.708Z,7.23
2018-08-31T14:45:16.250Z,5.87
2018-08-31T14:47:44.801Z,5.63
2018-08-31T14:50:13.363Z,5.43
2018-08-31T14:52:41.921Z,5.47
2018-08-31T14:55:10.477Z,9.60
2018-08-31T14:57:39.077Z,7.73
2018-08-31T15:00:07.781Z,7.63
2018-08-31T15:02:36.428Z,2.80
2018-08-31T15:05:05.113Z,9.90
2018-08-31T15:07:33.640Z,7.33
2018-08-31T15:10:02.174Z,11.03
2018-08-31T15:12:30.737Z,11.27
2018-08-31T15:14:59.286Z,10.37
2018-08-31T15:17:27.848Z,7.43
2018-08-31T15:19:56.440Z,8.07
2018-08-31T15:22:25.164Z,5.67
2018-08-31T15:24:53.697Z,7.57
2018-08-31T15:27:22.501Z,5.10
2018-08-31T15:29:51.016Z,6.30
2018-08-31T15:32:19.701Z,4.70
2018-08-31T15:34:48.252Z,6.73
2018-08-31T15:37:16.791Z,5.23
2018-08-31T15:39:45.423Z,13.60
2018-08-31T15:42:14.072Z,6.93
2018-08-31T15:44:42.680Z,5.80
2018-08-31T15:47:11.256Z,9.50
2018-08-31T15:49:39.829Z,5.50
2018-08-31T15:52:08.469Z,11.80
2018-08-31T15:54:37.061Z,9.23
2018-08-31T15:57:05.709Z,14.87
2018-08-31T15:59:34.300Z,8.27
2018-08-31T16:02:02.892Z,6.13
2018-08-31T16:04:31.788Z,13.13
2018-08-31T16:07:00.408Z,9.90
2018-08-31T16:09:28.905Z,17.67
2018-08-31T16:11:57.521Z,9.63
2018-08-31T16:14:26.136Z,13.63
2018-08-31T16:16:54.718Z,13.40
2018-08-31T16:19:23.364Z,10.63
2018-08-31T16:21:52.017Z,5.40
2018-08-31T16:24:20.609Z,7.70
2018-08-31T16:26:49.137Z,7.63
2018-08-31T16:29:17.681Z,5.30
2018-08-31T16:31:46.260Z,8.33
2018-08-31T16:34:14.814Z,6.70
2018-08-31T16:36:43.393Z,10.23
2018-08-31T16:39:11.962Z,4.97
2018-08-31T16:41:40.484Z,6.33
2018-08-31T16:44:09.045Z,5.23
2018-08-31T16:46:37.582Z,5.33
2018-08-31T16:49:06.160Z,4.07
2018-08-31T16:51:34.724Z,3.20
2018-08-31T16:54:03.286Z,7.33
2018-08-31T16:56:31.866Z,3.03
2018-08-31T16:59:00.393Z,3.93
2018-08-31T17:01:29.846Z,6.10
2018-08-31T17:03:58.393Z,3.47
2018-08-31T17:06:27.794Z,6.33
2018-08-31T17:08:56.397Z,3.77
2018-08-31T17:11:24.988Z,9.50
2018-08-31T17:13:53.557Z,4.43
2018-08-31T17:16:22.073Z,6.30
2018-08-31T17:18:50.649Z,5.30
2018-08-31T17:21:19.356Z,6.77
2018-08-31T17:23:47.896Z,8.80
2018-08-31T17:26:21.948Z,13.50
2018-08-31T17:28:55.787Z,16.40
2018-08-31T17:31:29.738Z,12.93
2018-08-31T17:34:04.670Z,19.23
2018-08-31T17:36:38.469Z,18.70
2018-08-31T17:39:08.377Z,26.20
2018-08-31T17:41:36.962Z,14.90
2018-08-31T17:44:05.751Z,11.20
2018-08-31T17:46:34.290Z,6.40
2018-08-31T17:49:03.087Z,6.23
2018-08-31T17:51:31.644Z,9.00
2018-08-31T17:55:02.959Z,8.77
2018-08-31T17:57:31.587Z,18.20
2018-08-31T18:00:00.146Z,15.60
2018-08-31T18:02:28.756Z,14.37
2018-08-31T18:04:57.372Z,14.40
2018-08-31T18:07:25.951Z,17.43
2018-08-31T18:09:54.607Z,12.70
2018-08-31T18:12:23.151Z,14.15
2018-08-31T18:14:51.752Z,13.07
2018-08-31T18:17:20.343Z,13.07
2018-08-31T18:19:48.897Z,11.03
2018-08-31T18:22:17.496Z,11.90
2018-08-31T18:24:46.042Z,7.60
2018-08-31T18:27:14.645Z,7.97
2018-08-31T18:29:43.199Z,7.77
2018-08-31T18:32:12.551Z,9.43
2018-08-31T18:34:41.109Z,9.50
2018-08-31T18:37:09.803Z,8.03
2018-08-31T18:39:38.370Z,8.90
2018-08-31T18:42:06.940Z,6.20
2018-08-31T18:44:35.479Z,7.15
2018-08-31T18:47:04.097Z,6.37
2018-08-31T18:49:32.632Z,5.17
2018-08-31T18:52:01.216Z,6.08
2018-08-31T18:54:29.782Z,10.70
2018-08-31T18:56:58.393Z,9.10
2018-08-31T18:59:26.996Z,10.35
2018-08-31T19:01:55.573Z,13.53
2018-08-31T19:04:24.145Z,10.90
2018-08-31T19:06:52.724Z,5.92
2018-08-31T19:09:21.315Z,9.18
2018-08-31T19:11:50.085Z,12.70
2018-08-31T19:14:18.795Z,8.43
2018-08-31T19:16:47.423Z,5.85
2018-08-31T19:19:16.005Z,7.00
2018-08-31T19:21:44.555Z,6.53
2018-08-31T19:24:13.126Z,10.05
2018-08-31T19:26:41.748Z,3.85
2018-08-31T19:29:10.293Z,5.92
2018-08-31T19:31:38.943Z,4.80
2018-08-31T19:34:07.559Z,6.53
2018-08-31T19:36:36.127Z,7.20
2018-08-31T19:39:06.222Z,11.78
2018-08-31T19:41:34.780Z,4.67
2018-08-31T19:44:03.412Z,3.92
2018-08-31T19:46:32.003Z,5.10
2018-08-31T19:49:00.557Z,5.15
2018-08-31T19:51:29.227Z,5.22
2018-08-31T19:53:57.774Z,14.68
2018-08-31T19:56:26.445Z,8.33
2018-08-31T19:58:55.023Z,5.08
2018-08-31T20:01:23.909Z,4.15
2018-08-31T20:03:52.489Z,4.25
2018-08-31T20:06:21.099Z,8.75
2018-08-31T20:08:50.278Z,6.83
2018-08-31T20:11:18.934Z,9.25
2018-08-31T20:13:47.529Z,3.75
2018-08-31T20:16:16.199Z,7.05
2018-08-31T20:18:44.769Z,7.50
2018-08-31T20:21:13.305Z,8.48
2018-08-31T20:23:41.955Z,3.90
2018-08-31T20:26:10.514Z,14.35
2018-08-31T20:28:39.284Z,12.00
2018-08-31T20:31:07.892Z,8.00
2018-08-31T20:33:36.478Z,8.43
2018-08-31T20:36:05.090Z,6.55
2018-08-31T20:38:33.753Z,5.55
2018-08-31T20:41:02.303Z,10.00
2018-08-31T20:43:31.072Z,5.20
2018-08-31T20:46:01.285Z,10.00
2018-08-31T20:48:29.911Z,4.78
2018-08-31T20:50:58.549Z,9.73
2018-08-31T20:53:27.274Z,5.08
2018-08-31T20:55:56.872Z,5.28
2018-08-31T20:58:25.483Z,5.87
2018-08-31T21:00:54.061Z,15.13
2018-08-31T21:03:22.676Z,12.00
2018-08-31T21:05:51.473Z,6.85
2018-08-31T21:08:20.095Z,12.10
2018-08-31T21:10:48.746Z,10.43
2018-08-31T21:13:17.343Z,10.08
2018-08-31T21:15:45.951Z,7.62
2018-08-31T21:18:14.549Z,1.80
2018-08-31T21:20:43.155Z,9.55
2018-08-31T21:23:11.747Z,10.72
2018-08-31T21:25:41.013Z,5.78
2018-08-31T21:28:09.558Z,9.35
2018-08-31T21:30:38.251Z,6.85
2018-08-31T21:33:07.336Z,6.70
2018-08-31T21:35:36.119Z,5.42
2018-08-31T21:38:04.703Z,7.95
2018-08-31T21:40:33.249Z,10.53
2018-08-31T21:43:02.224Z,9.60
2018-08-31T21:45:30.743Z,12.43
2018-08-31T21:47:59.312Z,11.03
2018-08-31T21:50:27.866Z,11.33
2018-08-31T21:52:56.382Z,8.15
2018-08-31T21:55:25.093Z,8.18
2018-08-31T21:57:53.598Z,5.83
2018-08-31T22:00:22.696Z,4.70
2018-08-31T22:02:51.640Z,5.78
2018-08-31T22:05:20.211Z,8.53
2018-08-31T22:07:48.779Z,6.08
2018-08-31T22:10:17.388Z,10.80
2018-08-31T22:12:45.978Z,5.65
2018-08-31T22:15:21.566Z,8.15
2018-08-31T22:17:50.283Z,8.08
2018-08-31T22:20:18.804Z,8.23
2018-08-31T22:22:47.375Z,10.88
2018-08-31T22:25:16.092Z,8.85
2018-08-31T22:27:44.701Z,9.40
2018-08-31T22:30:13.260Z,3.60
2018-08-31T22:32:41.777Z,10.03
2018-08-31T22:35:10.420Z,9.28
2018-08-31T22:37:38.928Z,10.78
2018-08-31T22:40:08.289Z,6.08
2018-08-31T22:42:36.919Z,12.45
2018-08-31T22:45:09.694Z,7.58
2018-08-31T22:47:38.333Z,9.30
2018-08-31T22:50:06.988Z,8.50
2018-08-31T22:52:35.532Z,13.75
2018-08-31T22:55:04.068Z,12.93
2018-08-31T22:57:32.599Z,7.85
2018-08-31T23:00:01.129Z,12.95
2018-08-31T23:02:29.684Z,4.87
2018-08-31T23:04:58.207Z,6.15
2018-08-31T23:07:31.997Z,8.20
2018-08-31T23:10:00.572Z,7.17
2018-08-31T23:12:29.140Z,9.40
2018-08-31T23:14:57.691Z,20.60
2018-08-31T23:17:28.687Z,6.35
2018-08-31T23:19:58.190Z,6.35
2018-08-31T23:22:27.844Z,3.67
2018-08-31T23:25:01.020Z,5.80
2018-08-31T23:27:30.359Z,8.80
2018-08-31T23:29:59.700Z,6.90
2018-08-31T23:32:28.294Z,3.15
2018-08-31T23:34:56.849Z,3.40
2018-08-31T23:37:25.386Z,9.35
2018-08-31T23:39:53.907Z,10.55
2018-08-31T23:42:22.436Z,8.25
2018-08-31T23:44:51.000Z,3.87
2018-08-31T23:47:19.536Z,9.65
2018-08-31T23:49:48.077Z,4.80
2018-08-31T23:52:16.597Z,8.45
2018-08-31T23:54:45.112Z,3.02
2018-08-31T23:57:13.642Z,5.97
2018-08-31T23:59:42.174Z,9.25
